KMAF/MAF METAR and TAF weather

Enter ICAO airport designator
Station Type Date Time Source
KMAF METAR 2019/08/24 07:53 UTC NOAA

KMAF 240753Z AUTO 11005KT 10SM BKN080 23/20 A3002 RMK AO2 SLP116 T02280200


Station Type Date Time Source
KMAF Decoded METAR 2019/08/24 07:53 UTC NOAA

Station name not available
Aug 24, 2019 - 03:53 AM EDT / 2019.08.24 0753 UTC
Wind: from the ESE (110 degrees) at 6 MPH (5 KT):0
Visibility: 10 mile(s):0
Sky conditions: mostly cloudy
Temperature: 73.0 F (22.8 C)
Dew Point: 68.0 F (20.0 C)
Relative Humidity: 84%
Pressure (altimeter): 30.02 in. Hg (1016 hPa)
ob: KMAF 240753Z AUTO 11005KT 10SM BKN080 23/20 A3002 RMK AO2 SLP116 T02280200
cycle: 8

Station Type Date Time Source
KMAF TAF 2019/08/24 06:42 UTC NOAA

TAF KMAF 240539Z 2406/2506 15011KT P6SM SCT250

Example: see airport list